createdAt,value
2022-09-20T00:00:24.967Z,1012.09
2022-09-20T00:01:25.639Z,1012.06
2022-09-20T00:02:26.262Z,1012.09
2022-09-20T00:03:26.847Z,1012.03
2022-09-20T00:04:27.408Z,1012.05
2022-09-20T00:05:28.012Z,1012.02
2022-09-20T00:06:28.602Z,1012.00
2022-09-20T00:07:29.164Z,1012.01
2022-09-20T00:08:29.913Z,1012.03
2022-09-20T00:09:30.473Z,1012.00
2022-09-20T00:10:31.059Z,1012.02
2022-09-20T00:11:31.615Z,1011.99
2022-09-20T00:12:32.181Z,1012.01
2022-09-20T00:13:32.776Z,1012.00
2022-09-20T00:14:33.335Z,1012.00
2022-09-20T00:15:33.898Z,1011.96
2022-09-20T00:16:34.543Z,1011.96
2022-09-20T00:17:35.144Z,1011.96
2022-09-20T00:18:35.928Z,1011.93
2022-09-20T00:19:36.483Z,1011.96
2022-09-20T00:20:37.041Z,1011.95
2022-09-20T00:21:37.606Z,1011.95
2022-09-20T00:22:38.168Z,1011.96
2022-09-20T00:23:38.766Z,1011.98
2022-09-20T00:24:39.322Z,1011.96
2022-09-20T00:25:39.906Z,1011.99
2022-09-20T00:26:40.463Z,1011.98
2022-09-20T00:27:41.043Z,1011.97
2022-09-20T00:28:41.673Z,1011.93
2022-09-20T00:29:42.376Z,1011.93
2022-09-20T00:30:42.943Z,1011.93
2022-09-20T00:31:43.550Z,1011.91
2022-09-20T00:32:44.152Z,1011.92
2022-09-20T00:33:44.742Z,1011.89
2022-09-20T00:34:45.301Z,1011.91
2022-09-20T00:35:45.857Z,1011.90
2022-09-20T00:36:46.419Z,1011.91
2022-09-20T00:37:46.978Z,1011.93
2022-09-20T00:38:47.577Z,1011.91
2022-09-20T00:39:48.136Z,1011.94
2022-09-20T00:40:48.721Z,1011.95
2022-09-20T00:41:49.289Z,1011.98
2022-09-20T00:42:49.854Z,1012.00
2022-09-20T00:43:50.453Z,1011.96
2022-09-20T00:44:51.017Z,1011.97
2022-09-20T00:45:51.659Z,1011.99
2022-09-20T00:46:52.265Z,1011.97
2022-09-20T00:47:52.827Z,1011.98
2022-09-20T00:48:53.619Z,1012.00
2022-09-20T00:49:54.187Z,1012.01
2022-09-20T00:50:54.759Z,1012.00
2022-09-20T00:51:55.321Z,1012.02
2022-09-20T00:52:55.891Z,1012.01
2022-09-20T00:53:56.587Z,1011.99
2022-09-20T00:54:57.152Z,1012.01
2022-09-20T00:55:57.741Z,1012.01
2022-09-20T00:56:58.297Z,1012.03
2022-09-20T00:57:58.860Z,1012.04
2022-09-20T00:58:59.459Z,1012.06
2022-09-20T01:00:00.017Z,1012.02
2022-09-20T01:01:00.652Z,1012.02
2022-09-20T01:02:01.277Z,1012.02
2022-09-20T01:03:01.865Z,1011.98
2022-09-20T01:04:02.461Z,1011.98
2022-09-20T01:05:03.031Z,1011.95
2022-09-20T01:06:03.592Z,1011.95
2022-09-20T01:07:04.151Z,1011.95
2022-09-20T01:08:04.719Z,1011.92
2022-09-20T01:09:05.368Z,1011.94
2022-09-20T01:10:05.928Z,1011.90
2022-09-20T01:11:06.521Z,1011.88
2022-09-20T01:12:07.088Z,1011.88
2022-09-20T01:13:07.652Z,1011.88
2022-09-20T01:14:08.252Z,1011.91
2022-09-20T01:15:08.821Z,1011.84
2022-09-20T01:16:09.441Z,1011.89
2022-09-20T01:17:10.082Z,1011.88
2022-09-20T01:18:10.650Z,1011.90
2022-09-20T01:19:11.371Z,1011.89
2022-09-20T01:20:11.924Z,1011.86
2022-09-20T01:21:12.486Z,1011.87
2022-09-20T01:22:13.040Z,1011.84
2022-09-20T01:23:13.603Z,1011.86
2022-09-20T01:24:14.234Z,1011.88
2022-09-20T01:25:14.791Z,1011.92
2022-09-20T01:26:15.375Z,1011.96
2022-09-20T01:27:15.927Z,1011.93
2022-09-20T01:28:16.495Z,1011.92
2022-09-20T01:29:17.195Z,1011.96
2022-09-20T01:30:17.781Z,1011.91
2022-09-20T01:31:18.456Z,1011.95
2022-09-20T01:32:19.086Z,1011.93
2022-09-20T01:33:19.640Z,1011.91
2022-09-20T01:34:20.240Z,1011.92
2022-09-20T01:35:20.817Z,1011.89
2022-09-20T01:36:21.384Z,1011.89
2022-09-20T01:37:21.949Z,1011.84
2022-09-20T01:38:22.510Z,1011.81
2022-09-20T01:39:23.103Z,1011.81
2022-09-20T01:40:23.782Z,1011.76
2022-09-20T01:41:24.407Z,1011.76
2022-09-20T01:42:24.977Z,1011.74
2022-09-20T01:43:25.549Z,1011.72
2022-09-20T01:44:26.166Z,1011.69
2022-09-20T01:45:26.788Z,1011.67
2022-09-20T01:46:27.367Z,1011.65
2022-09-20T01:47:27.922Z,1011.64
2022-09-20T01:48:28.476Z,1011.65
2022-09-20T01:49:29.136Z,1011.63
2022-09-20T01:50:29.691Z,1011.65
2022-09-20T01:51:30.257Z,1011.63
2022-09-20T01:52:30.821Z,1011.61
2022-09-20T01:53:31.381Z,1011.61
2022-09-20T01:54:31.989Z,1011.60
2022-09-20T01:55:32.551Z,1011.62
2022-09-20T01:56:33.137Z,1011.61
2022-09-20T01:57:33.722Z,1011.65
2022-09-20T01:58:34.292Z,1011.67
2022-09-20T01:59:35.054Z,1011.74
2022-09-20T02:00:35.615Z,1011.69
2022-09-20T02:01:36.321Z,1011.69
2022-09-20T02:02:36.979Z,1011.68
2022-09-20T02:03:37.596Z,1011.68
2022-09-20T02:04:38.189Z,1011.64
2022-09-20T02:05:38.743Z,1011.62
2022-09-20T02:06:39.333Z,1011.59
2022-09-20T02:07:39.897Z,1011.58
2022-09-20T02:08:40.461Z,1011.57
2022-09-20T02:09:41.103Z,1011.59
2022-09-20T02:10:41.656Z,1011.58
2022-09-20T02:11:42.241Z,1011.56
2022-09-20T02:12:42.793Z,1011.57
2022-09-20T02:13:43.355Z,1011.56
2022-09-20T02:14:43.951Z,1011.53
2022-09-20T02:15:44.519Z,1011.51
2022-09-20T02:16:45.153Z,1011.48
2022-09-20T02:17:45.772Z,1011.49
2022-09-20T02:18:46.334Z,1011.50
2022-09-20T02:19:47.013Z,1011.47
2022-09-20T02:20:47.584Z,1011.51
2022-09-20T02:21:48.142Z,1011.50
2022-09-20T02:22:48.738Z,1011.52
2022-09-20T02:23:49.350Z,1011.55
2022-09-20T02:24:50.016Z,1011.52
2022-09-20T02:25:50.582Z,1011.57
2022-09-20T02:26:51.167Z,1011.56
2022-09-20T02:27:51.728Z,1011.56
2022-09-20T02:28:52.285Z,1011.58
2022-09-20T02:29:52.911Z,1011.61
2022-09-20T02:30:53.470Z,1011.64
2022-09-20T02:31:54.090Z,1011.59
2022-09-20T02:32:54.724Z,1011.61
2022-09-20T02:33:55.287Z,1011.64
2022-09-20T02:34:55.881Z,1011.67
2022-09-20T02:35:56.437Z,1011.69
2022-09-20T02:36:56.997Z,1011.70
2022-09-20T02:37:57.566Z,1011.73
2022-09-20T02:38:58.136Z,1011.72
2022-09-20T02:39:58.916Z,1011.74
2022-09-20T02:40:59.516Z,1011.76
2022-09-20T02:42:00.101Z,1011.77
2022-09-20T02:43:00.670Z,1011.77
2022-09-20T02:44:01.231Z,1011.79
2022-09-20T02:45:01.830Z,1011.78
2022-09-20T02:46:02.481Z,1011.75
2022-09-20T02:47:03.117Z,1011.75
2022-09-20T02:48:03.684Z,1011.72
2022-09-20T02:49:04.250Z,1011.74
2022-09-20T02:50:04.869Z,1011.73
2022-09-20T02:51:05.429Z,1011.75
2022-09-20T02:52:05.989Z,1011.74
2022-09-20T02:53:06.552Z,1011.77
2022-09-20T02:54:07.115Z,1011.73
2022-09-20T02:55:07.830Z,1011.73
2022-09-20T02:56:08.392Z,1011.72
2022-09-20T02:57:08.971Z,1011.77
2022-09-20T02:58:09.539Z,1011.78
2022-09-20T02:59:10.093Z,1011.80
2022-09-20T03:00:10.696Z,1011.82
2022-09-20T03:01:11.355Z,1011.87
2022-09-20T03:02:12.068Z,1011.91
2022-09-20T03:03:12.692Z,1011.90
2022-09-20T03:04:13.252Z,1011.88
2022-09-20T03:05:13.870Z,1011.82
2022-09-20T03:06:14.437Z,1011.77
2022-09-20T03:07:15.002Z,1011.77
2022-09-20T03:08:15.556Z,1011.78
2022-09-20T03:09:16.127Z,1011.76
2022-09-20T03:10:16.774Z,1011.80
2022-09-20T03:11:17.338Z,1011.81
2022-09-20T03:12:17.922Z,1011.81
2022-09-20T03:13:18.481Z,1011.81
2022-09-20T03:14:19.044Z,1011.80
2022-09-20T03:15:19.765Z,1011.82
2022-09-20T03:16:20.396Z,1011.84
2022-09-20T03:17:20.968Z,1011.83
2022-09-20T03:18:21.527Z,1011.84
2022-09-20T03:19:22.082Z,1011.84
2022-09-20T03:20:44.490Z,1011.86
2022-09-20T03:21:23.495Z,1011.84
2022-09-20T03:22:24.057Z,1011.83
2022-09-20T03:23:24.613Z,1011.82
2022-09-20T03:24:25.173Z,1011.82
2022-09-20T03:25:25.735Z,1011.81
2022-09-20T03:26:26.399Z,1011.79
2022-09-20T03:27:26.985Z,1011.77
2022-09-20T03:28:27.548Z,1011.77
2022-09-20T03:29:28.109Z,1011.78
2022-09-20T03:30:28.670Z,1011.75
2022-09-20T03:31:29.311Z,1011.81
2022-09-20T03:32:29.937Z,1011.82
2022-09-20T03:33:30.502Z,1011.82
2022-09-20T03:34:31.068Z,1011.81
2022-09-20T03:35:31.628Z,1011.85
2022-09-20T03:36:32.219Z,1011.82
2022-09-20T03:37:32.779Z,1011.82
2022-09-20T03:38:33.353Z,1011.81
2022-09-20T03:39:33.916Z,1011.79
2022-09-20T03:40:34.500Z,1011.77
2022-09-20T03:41:35.106Z,1011.74
2022-09-20T03:42:35.696Z,1011.73
2022-09-20T03:43:36.260Z,1011.74
2022-09-20T03:44:36.822Z,1011.73
2022-09-20T03:45:37.427Z,1011.73
2022-09-20T03:46:38.054Z,1011.74
2022-09-20T03:47:38.616Z,1011.77
2022-09-20T03:48:39.175Z,1011.77
2022-09-20T03:49:39.742Z,1011.80
2022-09-20T03:50:40.305Z,1011.74
2022-09-20T03:51:40.849Z,1011.77
2022-09-20T03:52:41.358Z,1011.77
2022-09-20T03:53:41.861Z,1011.75
2022-09-20T03:54:42.367Z,1011.79
2022-09-20T03:55:42.886Z,1011.78
2022-09-20T03:56:43.502Z,1011.80
2022-09-20T03:57:44.037Z,1011.80
2022-09-20T03:58:44.545Z,1011.79
2022-09-20T03:59:45.047Z,1011.80
2022-09-20T04:00:45.683Z,1011.86
2022-09-20T04:01:46.271Z,1011.84
2022-09-20T04:02:46.832Z,1011.87
2022-09-20T04:03:47.380Z,1011.83
2022-09-20T04:04:47.886Z,1011.84
2022-09-20T04:05:48.402Z,1011.83
2022-09-20T04:06:48.940Z,1011.82
2022-09-20T04:07:49.444Z,1011.82
2022-09-20T04:08:49.946Z,1011.82
2022-09-20T04:09:50.452Z,1011.84
2022-09-20T04:10:50.968Z,1011.86
2022-09-20T04:11:51.577Z,1011.87
2022-09-20T04:12:52.373Z,1011.82
2022-09-20T04:13:52.877Z,1011.79
2022-09-20T04:14:53.389Z,1011.78
2022-09-20T04:15:53.892Z,1011.77
2022-09-20T04:16:54.554Z,1011.74
2022-09-20T04:17:55.081Z,1011.74
2022-09-20T04:18:55.579Z,1011.75
2022-09-20T04:19:56.084Z,1011.75
2022-09-20T04:20:56.584Z,1011.75
2022-09-20T04:21:58.156Z,1011.77
2022-09-20T04:22:58.188Z,1011.79
2022-09-20T04:23:58.711Z,1011.77
2022-09-20T04:24:59.210Z,1011.79
2022-09-20T04:26:00.005Z,1011.81
2022-09-20T04:27:01.518Z,1011.84
2022-09-20T04:28:01.569Z,1011.81
2022-09-20T04:29:02.083Z,1011.79
2022-09-20T04:30:03.192Z,1011.82
2022-09-20T04:31:03.601Z,1011.81
2022-09-20T04:32:05.107Z,1011.82
2022-09-20T04:33:07.668Z,1011.84
2022-09-20T04:34:05.864Z,1011.90
2022-09-20T04:35:05.745Z,1011.94
2022-09-20T04:36:11.527Z,1012.00
2022-09-20T04:37:07.068Z,1012.04
2022-09-20T04:38:10.418Z,1012.05
2022-09-20T04:39:08.910Z,1012.06
2022-09-20T04:40:14.453Z,1012.07
2022-09-20T04:41:10.659Z,1012.08
2022-09-20T04:42:31.218Z,1012.11
2022-09-20T04:43:14.461Z,1012.15
2022-09-20T04:44:12.071Z,1012.17
2022-09-20T04:45:18.447Z,1012.21
2022-09-20T04:46:13.509Z,1012.27
2022-09-20T04:47:14.074Z,1012.25
2022-09-20T04:48:14.593Z,1012.26
2022-09-20T04:49:15.103Z,1012.29
2022-09-20T04:50:15.612Z,1012.35
2022-09-20T04:51:16.118Z,1012.34
2022-09-20T04:52:16.939Z,1012.32
2022-09-20T04:53:17.330Z,1012.33
2022-09-20T04:54:17.896Z,1012.33
2022-09-20T04:55:18.451Z,1012.32
2022-09-20T04:56:18.961Z,1012.37
2022-09-20T04:57:20.850Z,1012.39
2022-09-20T04:58:20.482Z,1012.38
2022-09-20T04:59:20.980Z,1012.40
2022-09-20T05:00:21.864Z,1012.41
2022-09-20T05:01:23.797Z,1012.38
2022-09-20T05:02:23.682Z,1012.40
2022-09-20T05:03:23.790Z,1012.40
2022-09-20T05:04:24.866Z,1012.41
2022-09-20T05:05:25.726Z,1012.44
2022-09-20T05:06:26.018Z,1012.45
2022-09-20T05:07:26.727Z,1012.42
2022-09-20T05:08:28.158Z,1012.42
2022-09-20T05:09:28.494Z,1012.40
2022-09-20T05:10:29.839Z,1012.38
2022-09-20T05:11:30.548Z,1012.37
2022-09-20T05:12:32.642Z,1012.35
2022-09-20T05:13:32.007Z,1012.35
2022-09-20T05:14:32.649Z,1012.36
2022-09-20T05:15:33.595Z,1012.39
2022-09-20T05:16:44.150Z,1012.39
2022-09-20T05:17:34.849Z,1012.38
2022-09-20T05:18:35.481Z,1012.40
2022-09-20T05:19:36.348Z,1012.37
2022-09-20T05:20:36.989Z,1012.37
2022-09-20T05:21:42.445Z,1012.38
2022-09-20T05:22:38.639Z,1012.36
2022-09-20T05:23:39.287Z,1012.38
2022-09-20T05:24:39.980Z,1012.38
2022-09-20T05:25:40.544Z,1012.37
2022-09-20T05:26:41.218Z,1012.37
2022-09-20T05:27:42.050Z,1012.36
2022-09-20T05:28:42.675Z,1012.35
2022-09-20T05:29:43.438Z,1012.36
2022-09-20T05:30:44.103Z,1012.38
2022-09-20T05:31:44.840Z,1012.38
2022-09-20T05:32:45.536Z,1012.40
2022-09-20T05:33:46.156Z,1012.41
2022-09-20T05:34:46.735Z,1012.39
2022-09-20T05:35:47.367Z,1012.38
2022-09-20T05:36:48.073Z,1012.36
2022-09-20T05:37:48.799Z,1012.35
2022-09-20T05:38:49.531Z,1012.34
2022-09-20T05:39:50.641Z,1012.35
2022-09-20T05:40:50.897Z,1012.38
2022-09-20T05:41:52.277Z,1012.39
2022-09-20T05:42:52.820Z,1012.38
2022-09-20T05:43:54.561Z,1012.41
2022-09-20T05:44:54.721Z,1012.39
2022-09-20T05:45:55.205Z,1012.41
2022-09-20T05:46:56.045Z,1012.41
2022-09-20T05:47:56.142Z,1012.41
2022-09-20T05:48:56.731Z,1012.42
2022-09-20T05:49:57.309Z,1012.42
2022-09-20T05:51:01.864Z,1012.40
2022-09-20T05:51:58.960Z,1012.38
2022-09-20T05:53:00.103Z,1012.39
2022-09-20T05:53:59.949Z,1012.39
2022-09-20T05:55:00.519Z,1012.39
2022-09-20T05:56:07.379Z,1012.38
2022-09-20T05:57:02.888Z,1012.36
2022-09-20T05:58:03.162Z,1012.32
2022-09-20T05:59:03.757Z,1012.29
2022-09-20T06:00:04.565Z,1012.26
2022-09-20T06:01:05.203Z,1012.25
2022-09-20T06:02:05.897Z,1012.27
2022-09-20T06:03:07.397Z,1012.25
2022-09-20T06:04:07.566Z,1012.24
2022-09-20T06:05:12.288Z,1012.20
2022-09-20T06:06:09.010Z,1012.17
2022-09-20T06:07:09.677Z,1012.14
2022-09-20T06:08:10.746Z,1012.15
2022-09-20T06:09:11.307Z,1012.14
2022-09-20T06:10:11.971Z,1012.14
2022-09-20T06:11:12.822Z,1012.17
2022-09-20T06:12:13.562Z,1012.19
2022-09-20T06:13:21.241Z,1012.20
2022-09-20T06:14:24.538Z,1012.17
2022-09-20T06:15:16.796Z,1012.17
2022-09-20T06:16:16.490Z,1012.19
2022-09-20T06:17:17.227Z,1012.19
2022-09-20T06:18:17.955Z,1012.20
2022-09-20T06:19:18.729Z,1012.23
2022-09-20T06:20:19.312Z,1012.20
2022-09-20T06:21:20.045Z,1012.20
2022-09-20T06:22:20.735Z,1012.23
2022-09-20T06:23:21.470Z,1012.23
2022-09-20T06:24:21.980Z,1012.24
2022-09-20T06:25:22.610Z,1012.26
2022-09-20T06:26:23.237Z,1012.28
2022-09-20T06:27:24.057Z,1012.31
2022-09-20T06:28:25.000Z,1012.31
2022-09-20T06:29:26.714Z,1012.31
2022-09-20T06:30:26.458Z,1012.31
2022-09-20T06:31:27.882Z,1012.31
2022-09-20T06:32:28.885Z,1012.30
2022-09-20T06:33:29.148Z,1012.32
2022-09-20T06:34:29.939Z,1012.35
2022-09-20T06:35:31.481Z,1012.39
2022-09-20T06:36:32.790Z,1012.40
2022-09-20T06:37:36.011Z,1012.43
2022-09-20T06:38:32.780Z,1012.46
2022-09-20T06:39:33.754Z,1012.48
2022-09-20T06:40:34.371Z,1012.49
2022-09-20T06:41:35.025Z,1012.51
2022-09-20T06:42:35.602Z,1012.51
2022-09-20T06:43:39.040Z,1012.53
2022-09-20T06:45:18.252Z,1012.49
2022-09-20T06:47:44.232Z,1012.42
2022-09-20T06:48:32.665Z,1012.38
2022-09-20T06:49:29.297Z,1012.36
2022-09-20T06:50:30.347Z,1012.34
2022-09-20T06:51:30.533Z,1012.35
2022-09-20T06:52:31.764Z,1012.37
2022-09-20T06:53:31.966Z,1012.43
2022-09-20T06:54:39.854Z,1012.48
2022-09-20T06:55:33.395Z,1012.53
2022-09-20T06:56:34.005Z,1012.57
2022-09-20T06:57:34.618Z,1012.58
2022-09-20T06:58:35.350Z,1012.59
2022-09-20T06:59:36.034Z,1012.59
2022-09-20T07:00:36.814Z,1012.57
2022-09-20T07:01:37.499Z,1012.56
2022-09-20T07:02:38.395Z,1012.55
2022-09-20T07:03:39.658Z,1012.54
2022-09-20T07:04:39.884Z,1012.56
2022-09-20T07:05:40.564Z,1012.58
2022-09-20T07:06:41.265Z,1012.59
2022-09-20T07:07:41.865Z,1012.59
2022-09-20T07:08:42.533Z,1012.60
2022-09-20T07:09:43.154Z,1012.62
2022-09-20T07:10:43.821Z,1012.67
2022-09-20T07:11:49.689Z,1012.73
2022-09-20T07:12:45.298Z,1012.78
2022-09-20T07:13:45.973Z,1012.81
2022-09-20T07:14:46.796Z,1012.82
2022-09-20T07:15:47.479Z,1012.82
2022-09-20T07:16:48.345Z,1012.83
2022-09-20T07:17:49.046Z,1012.86
2022-09-20T07:18:49.725Z,1012.90
2022-09-20T07:19:50.922Z,1012.92
2022-09-20T07:20:51.085Z,1012.95
2022-09-20T07:21:51.668Z,1012.95
2022-09-20T07:22:52.363Z,1012.94
2022-09-20T07:23:53.554Z,1012.93
2022-09-20T07:24:54.028Z,1012.93
2022-09-20T07:25:54.653Z,1012.92
2022-09-20T07:26:55.397Z,1012.92
2022-09-20T07:27:55.747Z,1012.90
2022-09-20T07:28:56.524Z,1012.89
2022-09-20T07:29:57.223Z,1012.85
2022-09-20T07:30:57.942Z,1012.80
2022-09-20T07:31:58.479Z,1012.75
2022-09-20T07:32:59.243Z,1012.72
2022-09-20T07:33:59.794Z,1012.71
2022-09-20T07:35:01.290Z,1012.70
2022-09-20T07:36:01.831Z,1012.71
2022-09-20T07:37:04.604Z,1012.70
2022-09-20T07:38:13.171Z,1012.69
2022-09-20T07:39:04.019Z,1012.68
2022-09-20T07:40:04.600Z,1012.67
2022-09-20T07:41:05.291Z,1012.68
2022-09-20T07:42:06.000Z,1012.69
2022-09-20T07:43:06.702Z,1012.69
2022-09-20T07:44:07.704Z,1012.69
2022-09-20T07:45:08.415Z,1012.70
2022-09-20T07:46:09.118Z,1012.71
2022-09-20T07:47:15.215Z,1012.73
2022-09-20T07:48:10.208Z,1012.76
2022-09-20T07:49:11.336Z,1012.79
2022-09-20T07:50:12.084Z,1012.81
2022-09-20T07:51:12.145Z,1012.81
2022-09-20T07:52:16.736Z,1012.78
2022-09-20T07:53:21.890Z,1012.77
2022-09-20T07:54:14.012Z,1012.77
2022-09-20T07:55:15.048Z,1012.76
2022-09-20T07:56:15.272Z,1012.75
2022-09-20T07:57:15.855Z,1012.72
2022-09-20T07:58:17.906Z,1012.69
2022-09-20T07:59:21.134Z,1012.66
2022-09-20T08:00:30.115Z,1012.63
2022-09-20T08:01:18.948Z,1012.64
2022-09-20T08:02:19.373Z,1012.66
2022-09-20T08:03:20.121Z,1012.68
2022-09-20T08:04:20.868Z,1012.70
2022-09-20T08:05:21.939Z,1012.72
2022-09-20T08:06:22.438Z,1012.73
2022-09-20T08:07:22.961Z,1012.74
2022-09-20T08:08:23.561Z,1012.72
2022-09-20T08:09:24.428Z,1012.67
2022-09-20T08:10:25.091Z,1012.62
2022-09-20T08:11:28.745Z,1012.57
2022-09-20T08:14:27.908Z,1012.53
2022-09-20T08:15:28.920Z,1012.54
2022-09-20T08:16:29.314Z,1012.54
2022-09-20T08:17:30.433Z,1012.56
2022-09-20T08:18:31.006Z,1012.57
2022-09-20T08:19:31.695Z,1012.58
2022-09-20T08:20:31.923Z,1012.57
2022-09-20T08:21:32.636Z,1012.54
2022-09-20T08:22:33.170Z,1012.49
2022-09-20T08:23:34.110Z,1012.44
2022-09-20T08:24:34.540Z,1012.38
2022-09-20T08:25:35.197Z,1012.37
2022-09-20T08:26:36.164Z,1012.36
2022-09-20T08:27:37.257Z,1012.38
2022-09-20T08:28:37.547Z,1012.40
2022-09-20T08:29:56.702Z,1012.39
2022-09-20T08:30:38.912Z,1012.37
2022-09-20T08:31:39.605Z,1012.34
2022-09-20T08:32:40.345Z,1012.34
2022-09-20T08:33:40.935Z,1012.36
2022-09-20T08:34:41.559Z,1012.42
2022-09-20T08:35:42.237Z,1012.50
2022-09-20T08:36:42.914Z,1012.60
2022-09-20T08:37:43.582Z,1012.68
2022-09-20T08:40:00.574Z,1012.73
2022-09-20T08:40:46.021Z,1012.72
2022-09-20T08:41:46.771Z,1012.71
2022-09-20T08:42:47.450Z,1012.71
2022-09-20T08:43:48.027Z,1012.71
2022-09-20T08:44:57.608Z,1012.72
2022-09-20T08:45:49.794Z,1012.72
2022-09-20T08:46:50.626Z,1012.72
2022-09-20T08:47:55.234Z,1012.69
2022-09-20T08:48:52.376Z,1012.69
2022-09-20T08:49:57.776Z,1012.69
2022-09-20T08:50:54.194Z,1012.71
2022-09-20T08:51:54.976Z,1012.72
2022-09-20T08:53:00.256Z,1012.72
2022-09-20T08:53:56.603Z,1012.72
2022-09-20T08:54:57.177Z,1012.72
2022-09-20T08:55:58.222Z,1012.73
2022-09-20T08:56:58.690Z,1012.77
2022-09-20T08:57:59.352Z,1012.80
2022-09-20T08:59:00.125Z,1012.85
2022-09-20T09:00:00.738Z,1012.87
2022-09-20T09:01:02.958Z,1012.88
2022-09-20T09:02:02.798Z,1012.89
2022-09-20T09:03:03.208Z,1012.87
2022-09-20T09:04:03.841Z,1012.84
2022-09-20T09:05:04.429Z,1012.82
2022-09-20T09:06:11.188Z,1012.80
2022-09-20T09:07:06.365Z,1012.81
2022-09-20T09:08:06.642Z,1012.81
2022-09-20T09:09:07.354Z,1012.83
2022-09-20T09:10:08.012Z,1012.84
2022-09-20T09:11:08.644Z,1012.83
2022-09-20T09:12:14.347Z,1012.82
2022-09-20T09:13:10.007Z,1012.80
2022-09-20T09:14:23.762Z,1012.77
2022-09-20T09:15:17.737Z,1012.72
2022-09-20T09:16:12.041Z,1012.70
2022-09-20T09:17:14.154Z,1012.68
2022-09-20T09:18:14.842Z,1012.70
2022-09-20T09:19:14.480Z,1012.74
2022-09-20T09:20:15.150Z,1012.77
2022-09-20T09:21:15.784Z,1012.78
2022-09-20T09:22:16.872Z,1012.78
2022-09-20T09:23:17.362Z,1012.79
2022-09-20T09:24:17.994Z,1012.80
2022-09-20T09:25:18.140Z,1012.80
2022-09-20T09:26:19.445Z,1012.79
2022-09-20T09:27:20.297Z,1012.77
2022-09-20T09:28:20.595Z,1012.75
2022-09-20T09:29:21.150Z,1012.73
2022-09-20T09:30:21.838Z,1012.71
2022-09-20T09:31:22.603Z,1012.71
2022-09-20T09:32:24.026Z,1012.70
2022-09-20T09:33:24.432Z,1012.67
2022-09-20T09:34:28.421Z,1012.63
2022-09-20T09:35:26.306Z,1012.57
2022-09-20T09:36:29.253Z,1012.52
2022-09-20T09:37:28.950Z,1012.50
2022-09-20T09:38:28.252Z,1012.50
2022-09-20T09:39:28.978Z,1012.52
2022-09-20T09:40:29.994Z,1012.53
2022-09-20T09:41:30.230Z,1012.52
2022-09-20T09:42:30.874Z,1012.50
2022-09-20T09:43:31.572Z,1012.48
2022-09-20T09:44:32.248Z,1012.46
2022-09-20T09:45:32.926Z,1012.43
2022-09-20T09:46:33.572Z,1012.43
2022-09-20T09:47:34.314Z,1012.44
2022-09-20T09:48:40.274Z,1012.47
2022-09-20T09:49:35.848Z,1012.52
2022-09-20T09:50:36.535Z,1012.57
2022-09-20T09:51:37.399Z,1012.62
2022-09-20T09:52:38.266Z,1012.65
2022-09-20T09:53:42.995Z,1012.69
2022-09-20T09:54:39.959Z,1012.71
2022-09-20T09:55:40.931Z,1012.70
2022-09-20T09:56:41.644Z,1012.67
2022-09-20T09:57:42.594Z,1012.61
2022-09-20T09:58:43.271Z,1012.56
2022-09-20T09:59:43.850Z,1012.49
2022-09-20T10:00:44.475Z,1012.46
2022-09-20T10:01:45.197Z,1012.47
2022-09-20T10:02:46.222Z,1012.49
2022-09-20T10:03:47.165Z,1012.54
2022-09-20T10:04:47.286Z,1012.56
2022-09-20T10:05:47.932Z,1012.56
2022-09-20T10:06:52.249Z,1012.54
2022-09-20T10:07:49.102Z,1012.50
2022-09-20T10:08:49.793Z,1012.47
2022-09-20T10:09:50.487Z,1012.44
2022-09-20T10:10:51.122Z,1012.43
2022-09-20T10:11:51.719Z,1012.43
2022-09-20T10:12:52.394Z,1012.44
2022-09-20T10:13:52.965Z,1012.47
2022-09-20T10:14:53.782Z,1012.50
2022-09-20T10:15:54.919Z,1012.51
2022-09-20T10:16:55.765Z,1012.47
2022-09-20T10:17:56.223Z,1012.44
2022-09-20T10:18:56.824Z,1012.44
2022-09-20T10:19:58.564Z,1012.47
2022-09-20T10:20:58.420Z,1012.52
2022-09-20T10:21:59.141Z,1012.59
2022-09-20T10:23:34.422Z,1012.66
2022-09-20T10:24:04.761Z,1012.73
2022-09-20T10:25:01.141Z,1012.77
2022-09-20T10:26:01.798Z,1012.77
2022-09-20T10:27:02.406Z,1012.76
2022-09-20T10:28:03.205Z,1012.75
2022-09-20T10:29:03.855Z,1012.75
2022-09-20T10:30:04.565Z,1012.74
2022-09-20T10:31:05.441Z,1012.72
2022-09-20T10:32:06.181Z,1012.70
2022-09-20T10:33:06.986Z,1012.71
2022-09-20T10:34:07.680Z,1012.75
2022-09-20T10:35:08.377Z,1012.79
2022-09-20T10:36:09.149Z,1012.80
2022-09-20T10:37:10.155Z,1012.82
2022-09-20T10:38:20.413Z,1012.85
2022-09-20T10:39:19.559Z,1012.91
2022-09-20T10:40:12.234Z,1012.94
2022-09-20T10:41:12.910Z,1012.93
2022-09-20T10:42:13.780Z,1012.88
2022-09-20T10:43:14.454Z,1012.83
2022-09-20T10:44:15.048Z,1012.83
2022-09-20T10:45:36.039Z,1012.80
2022-09-20T10:46:33.646Z,1012.79
2022-09-20T10:47:19.206Z,1012.79
2022-09-20T10:48:33.535Z,1012.78
2022-09-20T10:49:19.585Z,1012.78
2022-09-20T10:50:49.466Z,1012.79
2022-09-20T10:51:20.519Z,1012.80
2022-09-20T10:52:20.685Z,1012.78
2022-09-20T10:53:29.340Z,1012.75
2022-09-20T10:54:22.359Z,1012.74
2022-09-20T10:55:22.398Z,1012.74
2022-09-20T10:56:23.116Z,1012.73
2022-09-20T10:57:26.513Z,1012.72
2022-09-20T10:58:25.817Z,1012.70
2022-09-20T10:59:28.028Z,1012.68
2022-09-20T11:00:34.215Z,1012.65
2022-09-20T11:01:29.052Z,1012.60
2022-09-20T11:02:28.650Z,1012.53
2022-09-20T11:03:29.011Z,1012.48
2022-09-20T11:04:29.926Z,1012.45
2022-09-20T11:05:30.548Z,1012.46
2022-09-20T11:06:31.180Z,1012.52
2022-09-20T11:07:32.750Z,1012.57
2022-09-20T11:08:32.520Z,1012.62
2022-09-20T11:09:33.181Z,1012.64
2022-09-20T11:10:33.766Z,1012.66
2022-09-20T11:11:34.556Z,1012.66
2022-09-20T11:12:36.176Z,1012.65
2022-09-20T11:13:37.055Z,1012.65
2022-09-20T11:14:37.381Z,1012.64
2022-09-20T11:15:37.820Z,1012.63
2022-09-20T11:16:38.575Z,1012.65
2022-09-20T11:17:39.199Z,1012.67
2022-09-20T11:18:39.939Z,1012.69
2022-09-20T11:19:40.260Z,1012.69
2022-09-20T11:20:40.882Z,1012.68
2022-09-20T11:21:41.456Z,1012.66
2022-09-20T11:22:42.128Z,1012.64
2022-09-20T11:23:42.903Z,1012.64
2022-09-20T11:24:43.572Z,1012.65
2022-09-20T11:25:44.196Z,1012.65
2022-09-20T11:26:59.043Z,1012.65
2022-09-20T11:27:46.008Z,1012.66
2022-09-20T11:28:46.545Z,1012.67
2022-09-20T11:29:47.799Z,1012.68
2022-09-20T11:30:49.318Z,1012.68
2022-09-20T11:31:49.809Z,1012.68
2022-09-20T11:32:50.791Z,1012.68
2022-09-20T11:33:50.966Z,1012.68
2022-09-20T11:34:51.906Z,1012.71
2022-09-20T11:35:53.293Z,1012.73
2022-09-20T11:36:53.567Z,1012.75
2022-09-20T11:37:54.889Z,1012.77
2022-09-20T11:38:55.747Z,1012.79
2022-09-20T11:39:56.015Z,1012.79
2022-09-20T11:40:58.302Z,1012.78
2022-09-20T11:41:57.312Z,1012.74
2022-09-20T11:42:57.592Z,1012.71
2022-09-20T11:43:59.026Z,1012.69
2022-09-20T11:44:59.482Z,1012.67
2022-09-20T11:46:01.609Z,1012.67
2022-09-20T11:47:02.270Z,1012.70
2022-09-20T11:48:02.347Z,1012.74
2022-09-20T11:49:03.170Z,1012.81
2022-09-20T11:50:03.510Z,1012.87
2022-09-20T11:51:03.306Z,1012.93
2022-09-20T11:52:04.920Z,1012.96
2022-09-20T11:53:05.153Z,1012.97
2022-09-20T11:54:06.785Z,1012.94
2022-09-20T11:55:05.562Z,1012.88
2022-09-20T11:56:07.904Z,1012.82
2022-09-20T11:57:08.118Z,1012.78
2022-09-20T11:58:08.772Z,1012.76
2022-09-20T11:59:10.492Z,1012.77
2022-09-20T12:00:09.772Z,1012.79
2022-09-20T12:01:11.823Z,1012.81
2022-09-20T12:02:11.936Z,1012.83
2022-09-20T12:03:12.583Z,1012.83
2022-09-20T12:04:31.849Z,1012.83
2022-09-20T12:05:13.362Z,1012.84
2022-09-20T12:06:13.485Z,1012.85
2022-09-20T12:07:17.864Z,1012.85
2022-09-20T12:08:16.228Z,1012.85
2022-09-20T12:09:18.201Z,1012.85
2022-09-20T12:10:18.292Z,1012.85
2022-09-20T12:11:19.102Z,1012.84
2022-09-20T12:12:19.576Z,1012.83
2022-09-20T12:13:21.335Z,1012.81
2022-09-20T12:14:22.117Z,1012.79
2022-09-20T12:15:22.050Z,1012.77
2022-09-20T12:16:21.955Z,1012.77
2022-09-20T12:17:23.690Z,1012.76
2022-09-20T12:18:24.322Z,1012.74